sensor_id;sensor_type;location;lat;lon;timestamp;temperature;humidity
423;DHT22;198;48.752;9.180;2023-03-20T00:01:24;10.90;99.90
423;DHT22;198;48.752;9.180;2023-03-20T00:03:50;11.00;99.90
423;DHT22;198;48.752;9.180;2023-03-20T00:06:27;11.00;99.90
423;DHT22;198;48.752;9.180;2023-03-20T00:08:56;11.10;99.90
423;DHT22;198;48.752;9.180;2023-03-20T00:11:28;11.00;99.90
423;DHT22;198;48.752;9.180;2023-03-20T00:14:09;11.00;99.90
423;DHT22;198;48.752;9.180;2023-03-20T00:16:38;11.00;99.90
423;DHT22;198;48.752;9.180;2023-03-20T00:19:04;10.90;99.90
423;DHT22;198;48.752;9.180;2023-03-20T00:21:31;10.90;99.90
423;DHT22;198;48.752;9.180;2023-03-20T00:23:57;10.90;99.90
423;DHT22;198;48.752;9.180;2023-03-20T00:26:26;10.90;99.90
423;DHT22;198;48.752;9.180;2023-03-20T00:28:52;10.90;99.90
423;DHT22;198;48.752;9.180;2023-03-20T00:31:31;10.80;99.90
423;DHT22;198;48.752;9.180;2023-03-20T00:33:59;10.80;99.90
423;DHT22;198;48.752;9.180;2023-03-20T00:36:26;10.70;99.90
423;DHT22;198;48.752;9.180;2023-03-20T00:38:52;10.60;99.90
423;DHT22;198;48.752;9.180;2023-03-20T00:41:26;10.60;99.90
423;DHT22;198;48.752;9.180;2023-03-20T00:43:58;10.50;99.90
423;DHT22;198;48.752;9.180;2023-03-20T00:46:24;10.50;99.90
423;DHT22;198;48.752;9.180;2023-03-20T00:48:50;10.40;99.90
423;DHT22;198;48.752;9.180;2023-03-20T00:51:17;10.30;99.90
423;DHT22;198;48.752;9.180;2023-03-20T00:53:42;10.30;99.90
423;DHT22;198;48.752;9.180;2023-03-20T00:58:54;10.30;99.90
423;DHT22;198;48.752;9.180;2023-03-20T01:01:19;10.30;99.90
423;DHT22;198;48.752;9.180;2023-03-20T01:03:45;10.30;99.90
423;DHT22;198;48.752;9.180;2023-03-20T01:06:11;10.20;99.90
423;DHT22;198;48.752;9.180;2023-03-20T01:08:37;10.20;99.90
423;DHT22;198;48.752;9.180;2023-03-20T01:11:02;10.30;99.90
423;DHT22;198;48.752;9.180;2023-03-20T01:13:30;10.30;99.90
423;DHT22;198;48.752;9.180;2023-03-20T01:15:57;10.30;99.90
423;DHT22;198;48.752;9.180;2023-03-20T01:18:25;10.30;99.90
423;DHT22;198;48.752;9.180;2023-03-20T01:20:51;10.30;99.90
423;DHT22;198;48.752;9.180;2023-03-20T01:23:20;10.30;99.90
423;DHT22;198;48.752;9.180;2023-03-20T01:25:48;10.30;99.90
423;DHT22;198;48.752;9.180;2023-03-20T01:28:17;10.20;99.90
423;DHT22;198;48.752;9.180;2023-03-20T01:30:44;10.20;99.90
423;DHT22;198;48.752;9.180;2023-03-20T01:33:21;10.20;99.90
423;DHT22;198;48.752;9.180;2023-03-20T01:35:48;10.20;99.90
423;DHT22;198;48.752;9.180;2023-03-20T01:38:24;10.20;99.90
423;DHT22;198;48.752;9.180;2023-03-20T01:41:00;10.20;99.90
423;DHT22;198;48.752;9.180;2023-03-20T01:43:28;10.20;99.90
423;DHT22;198;48.752;9.180;2023-03-20T01:46:16;10.20;99.90
423;DHT22;198;48.752;9.180;2023-03-20T01:51:17;10.30;99.90
423;DHT22;198;48.752;9.180;2023-03-20T01:53:44;10.30;99.90
423;DHT22;198;48.752;9.180;2023-03-20T01:56:13;10.20;99.90
423;DHT22;198;48.752;9.180;2023-03-20T01:58:43;10.20;99.90
423;DHT22;198;48.752;9.180;2023-03-20T02:01:11;10.20;99.90
423;DHT22;198;48.752;9.180;2023-03-20T02:03:38;10.20;99.90
423;DHT22;198;48.752;9.180;2023-03-20T02:06:05;10.10;99.90
423;DHT22;198;48.752;9.180;2023-03-20T02:08:36;10.10;99.90
423;DHT22;198;48.752;9.180;2023-03-20T02:11:05;10.10;99.90
423;DHT22;198;48.752;9.180;2023-03-20T02:13:31;10.00;99.90
423;DHT22;198;48.752;9.180;2023-03-20T02:18:32;10.00;99.90
423;DHT22;198;48.752;9.180;2023-03-20T02:35:26;9.90;99.90
423;DHT22;198;48.752;9.180;2023-03-20T02:41:26;9.90;99.90
423;DHT22;198;48.752;9.180;2023-03-20T02:44:19;9.80;99.90
423;DHT22;198;48.752;9.180;2023-03-20T02:47:04;9.70;99.90
423;DHT22;198;48.752;9.180;2023-03-20T02:54:58;9.50;99.90
423;DHT22;198;48.752;9.180;2023-03-20T03:00:29;9.50;99.90
423;DHT22;198;48.752;9.180;2023-03-20T03:05:59;9.50;99.90
423;DHT22;198;48.752;9.180;2023-03-20T03:08:31;9.50;99.90
423;DHT22;198;48.752;9.180;2023-03-20T03:11:05;9.50;99.90
423;DHT22;198;48.752;9.180;2023-03-20T03:13:34;9.50;99.90
423;DHT22;198;48.752;9.180;2023-03-20T03:16:29;9.50;99.90
423;DHT22;198;48.752;9.180;2023-03-20T03:19:05;9.50;99.90
423;DHT22;198;48.752;9.180;2023-03-20T03:21:33;9.50;99.90
423;DHT22;198;48.752;9.180;2023-03-20T03:24:00;9.50;99.90
423;DHT22;198;48.752;9.180;2023-03-20T03:26:29;9.50;99.90
423;DHT22;198;48.752;9.180;2023-03-20T03:29:03;9.50;99.90
423;DHT22;198;48.752;9.180;2023-03-20T03:31:31;9.50;99.90
423;DHT22;198;48.752;9.180;2023-03-20T03:33:58;9.50;99.90
423;DHT22;198;48.752;9.180;2023-03-20T03:36:36;9.50;99.90
423;DHT22;198;48.752;9.180;2023-03-20T03:47:24;9.40;99.90
423;DHT22;198;48.752;9.180;2023-03-20T03:49:58;9.50;99.90
423;DHT22;198;48.752;9.180;2023-03-20T03:52:25;9.50;99.90
423;DHT22;198;48.752;9.180;2023-03-20T03:55:02;9.50;99.90
423;DHT22;198;48.752;9.180;2023-03-20T03:57:35;9.50;99.90
423;DHT22;198;48.752;9.180;2023-03-20T04:00:04;9.50;99.90
423;DHT22;198;48.752;9.180;2023-03-20T04:02:31;9.50;99.90
423;DHT22;198;48.752;9.180;2023-03-20T04:04:58;9.50;99.90
423;DHT22;198;48.752;9.180;2023-03-20T04:07:27;9.50;99.90
423;DHT22;198;48.752;9.180;2023-03-20T04:09:53;9.60;99.90
423;DHT22;198;48.752;9.180;2023-03-20T04:14:59;9.60;99.90
423;DHT22;198;48.752;9.180;2023-03-20T04:17:24;9.70;99.90
423;DHT22;198;48.752;9.180;2023-03-20T04:19:50;9.60;99.90
423;DHT22;198;48.752;9.180;2023-03-20T04:22:16;9.70;99.90
423;DHT22;198;48.752;9.180;2023-03-20T04:24:41;9.70;99.90
423;DHT22;198;48.752;9.180;2023-03-20T04:27:07;9.60;99.90
423;DHT22;198;48.752;9.180;2023-03-20T04:29:32;9.60;99.90
423;DHT22;198;48.752;9.180;2023-03-20T04:31:58;9.60;99.90
423;DHT22;198;48.752;9.180;2023-03-20T04:34:24;9.60;99.90
423;DHT22;198;48.752;9.180;2023-03-20T04:36:50;9.60;99.90
423;DHT22;198;48.752;9.180;2023-03-20T04:39:15;9.60;99.90
423;DHT22;198;48.752;9.180;2023-03-20T04:41:41;9.70;99.90
423;DHT22;198;48.752;9.180;2023-03-20T04:44:06;9.80;99.90
423;DHT22;198;48.752;9.180;2023-03-20T04:46:32;9.80;99.90
423;DHT22;198;48.752;9.180;2023-03-20T04:48:57;9.80;99.90
423;DHT22;198;48.752;9.180;2023-03-20T04:51:23;9.80;99.90
423;DHT22;198;48.752;9.180;2023-03-20T04:53:49;9.80;99.90
423;DHT22;198;48.752;9.180;2023-03-20T04:56:14;9.90;99.90
423;DHT22;198;48.752;9.180;2023-03-20T04:58:40;9.90;99.90
423;DHT22;198;48.752;9.180;2023-03-20T05:01:05;9.90;99.90
423;DHT22;198;48.752;9.180;2023-03-20T05:03:31;9.80;99.90
423;DHT22;198;48.752;9.180;2023-03-20T05:05:57;9.90;99.90
423;DHT22;198;48.752;9.180;2023-03-20T05:08:23;9.90;99.90
423;DHT22;198;48.752;9.180;2023-03-20T05:10:49;9.90;99.90
423;DHT22;198;48.752;9.180;2023-03-20T05:13:14;9.90;99.90
423;DHT22;198;48.752;9.180;2023-03-20T05:15:40;9.90;99.90
423;DHT22;198;48.752;9.180;2023-03-20T05:18:05;9.90;99.90
423;DHT22;198;48.752;9.180;2023-03-20T05:20:31;9.90;99.90
423;DHT22;198;48.752;9.180;2023-03-20T05:22:57;9.90;99.90
423;DHT22;198;48.752;9.180;2023-03-20T05:25:22;9.90;99.90
423;DHT22;198;48.752;9.180;2023-03-20T05:27:48;10.00;99.90
423;DHT22;198;48.752;9.180;2023-03-20T05:30:14;10.00;99.90
423;DHT22;198;48.752;9.180;2023-03-20T05:32:39;10.00;99.90
423;DHT22;198;48.752;9.180;2023-03-20T05:35:06;10.00;99.90
423;DHT22;198;48.752;9.180;2023-03-20T05:37:33;10.00;99.90
423;DHT22;198;48.752;9.180;2023-03-20T05:39:58;10.10;99.90
423;DHT22;198;48.752;9.180;2023-03-20T05:42:24;10.20;99.90
423;DHT22;198;48.752;9.180;2023-03-20T05:44:49;10.20;99.90
423;DHT22;198;48.752;9.180;2023-03-20T05:47:15;10.30;99.90
423;DHT22;198;48.752;9.180;2023-03-20T05:49:40;10.30;99.90
423;DHT22;198;48.752;9.180;2023-03-20T05:52:06;10.30;99.90
423;DHT22;198;48.752;9.180;2023-03-20T05:54:32;10.20;99.90
423;DHT22;198;48.752;9.180;2023-03-20T05:56:57;10.30;99.90
423;DHT22;198;48.752;9.180;2023-03-20T05:59:23;10.30;99.90
423;DHT22;198;48.752;9.180;2023-03-20T06:01:48;10.20;99.90
423;DHT22;198;48.752;9.180;2023-03-20T06:04:14;10.20;99.90
423;DHT22;198;48.752;9.180;2023-03-20T06:06:39;10.30;99.90
423;DHT22;198;48.752;9.180;2023-03-20T06:09:06;10.30;99.90
423;DHT22;198;48.752;9.180;2023-03-20T06:11:31;10.30;99.90
423;DHT22;198;48.752;9.180;2023-03-20T06:13:57;10.20;99.90
423;DHT22;198;48.752;9.180;2023-03-20T06:16:23;10.30;99.90
423;DHT22;198;48.752;9.180;2023-03-20T06:18:49;10.40;99.90
423;DHT22;198;48.752;9.180;2023-03-20T06:21:14;10.40;99.90
423;DHT22;198;48.752;9.180;2023-03-20T06:23:40;10.40;99.90
423;DHT22;198;48.752;9.180;2023-03-20T06:26:06;10.40;99.90
423;DHT22;198;48.752;9.180;2023-03-20T06:28:31;10.50;99.90
423;DHT22;198;48.752;9.180;2023-03-20T06:30:57;10.50;99.90
423;DHT22;198;48.752;9.180;2023-03-20T06:33:22;10.50;99.90
423;DHT22;198;48.752;9.180;2023-03-20T06:35:48;10.60;99.90
423;DHT22;198;48.752;9.180;2023-03-20T06:38:14;10.80;99.90
423;DHT22;198;48.752;9.180;2023-03-20T06:40:40;10.70;99.90
423;DHT22;198;48.752;9.180;2023-03-20T06:43:06;10.80;99.90
423;DHT22;198;48.752;9.180;2023-03-20T06:45:32;11.00;99.90
423;DHT22;198;48.752;9.180;2023-03-20T06:47:57;11.10;99.90
423;DHT22;198;48.752;9.180;2023-03-20T06:50:23;11.10;99.90
423;DHT22;198;48.752;9.180;2023-03-20T06:52:48;11.20;99.90
423;DHT22;198;48.752;9.180;2023-03-20T06:55:14;11.20;99.90
423;DHT22;198;48.752;9.180;2023-03-20T06:57:40;11.30;99.90
423;DHT22;198;48.752;9.180;2023-03-20T07:00:06;11.30;99.90
423;DHT22;198;48.752;9.180;2023-03-20T07:02:32;11.30;99.90
423;DHT22;198;48.752;9.180;2023-03-20T07:04:57;11.30;99.90
423;DHT22;198;48.752;9.180;2023-03-20T07:07:23;11.30;99.90
423;DHT22;198;48.752;9.180;2023-03-20T07:09:49;11.50;99.90
423;DHT22;198;48.752;9.180;2023-03-20T07:12:16;11.70;99.90
423;DHT22;198;48.752;9.180;2023-03-20T07:14:44;11.70;99.90
423;DHT22;198;48.752;9.180;2023-03-20T07:17:10;11.70;99.90
423;DHT22;198;48.752;9.180;2023-03-20T07:19:36;11.80;99.90
423;DHT22;198;48.752;9.180;2023-03-20T07:22:07;12.00;99.90
423;DHT22;198;48.752;9.180;2023-03-20T07:24:34;12.20;99.90
423;DHT22;198;48.752;9.180;2023-03-20T07:26:59;12.40;99.90
423;DHT22;198;48.752;9.180;2023-03-20T07:29:25;12.30;99.90
423;DHT22;198;48.752;9.180;2023-03-20T07:31:51;12.10;99.90
423;DHT22;198;48.752;9.180;2023-03-20T07:34:16;12.00;99.90
423;DHT22;198;48.752;9.180;2023-03-20T07:36:42;11.70;99.90
423;DHT22;198;48.752;9.180;2023-03-20T07:39:08;11.60;99.90
423;DHT22;198;48.752;9.180;2023-03-20T07:41:34;11.50;99.90
423;DHT22;198;48.752;9.180;2023-03-20T07:44:00;11.50;99.90
423;DHT22;198;48.752;9.180;2023-03-20T07:46:25;11.60;99.90
423;DHT22;198;48.752;9.180;2023-03-20T07:48:51;11.80;99.90
423;DHT22;198;48.752;9.180;2023-03-20T07:51:17;12.00;99.90
423;DHT22;198;48.752;9.180;2023-03-20T07:53:42;12.10;99.90
423;DHT22;198;48.752;9.180;2023-03-20T07:56:09;12.20;99.90
423;DHT22;198;48.752;9.180;2023-03-20T07:58:35;12.30;99.90
423;DHT22;198;48.752;9.180;2023-03-20T08:01:00;12.40;99.90
423;DHT22;198;48.752;9.180;2023-03-20T08:03:27;12.50;99.90
423;DHT22;198;48.752;9.180;2023-03-20T08:05:53;12.70;99.90
423;DHT22;198;48.752;9.180;2023-03-20T08:08:19;12.80;99.90
423;DHT22;198;48.752;9.180;2023-03-20T08:10:44;13.10;99.90
423;DHT22;198;48.752;9.180;2023-03-20T08:13:10;13.10;99.90
423;DHT22;198;48.752;9.180;2023-03-20T08:15:35;13.00;99.90
423;DHT22;198;48.752;9.180;2023-03-20T08:18:01;13.00;99.90
423;DHT22;198;48.752;9.180;2023-03-20T08:20:26;13.00;99.90
423;DHT22;198;48.752;9.180;2023-03-20T08:22:52;12.80;99.90
423;DHT22;198;48.752;9.180;2023-03-20T08:25:18;12.80;99.90
423;DHT22;198;48.752;9.180;2023-03-20T08:27:43;12.90;99.90
423;DHT22;198;48.752;9.180;2023-03-20T08:30:09;12.80;99.90
423;DHT22;198;48.752;9.180;2023-03-20T08:32:35;12.80;99.90
423;DHT22;198;48.752;9.180;2023-03-20T08:35:01;12.70;99.90
423;DHT22;198;48.752;9.180;2023-03-20T08:37:27;12.70;99.90
423;DHT22;198;48.752;9.180;2023-03-20T08:39:52;12.80;99.90
423;DHT22;198;48.752;9.180;2023-03-20T08:42:18;12.80;99.90
423;DHT22;198;48.752;9.180;2023-03-20T08:44:44;12.70;99.90
423;DHT22;198;48.752;9.180;2023-03-20T08:47:10;12.70;99.90
423;DHT22;198;48.752;9.180;2023-03-20T08:49:36;12.90;99.90
423;DHT22;198;48.752;9.180;2023-03-20T08:52:02;13.10;99.90
423;DHT22;198;48.752;9.180;2023-03-20T08:54:28;13.00;99.90
423;DHT22;198;48.752;9.180;2023-03-20T08:56:53;13.00;99.90
423;DHT22;198;48.752;9.180;2023-03-20T08:59:19;13.00;99.90
423;DHT22;198;48.752;9.180;2023-03-20T09:01:45;13.00;99.90
423;DHT22;198;48.752;9.180;2023-03-20T09:04:12;13.00;99.90
423;DHT22;198;48.752;9.180;2023-03-20T09:06:38;13.30;99.90
423;DHT22;198;48.752;9.180;2023-03-20T09:09:05;13.60;99.90
423;DHT22;198;48.752;9.180;2023-03-20T09:11:31;14.00;99.90
423;DHT22;198;48.752;9.180;2023-03-20T09:13:57;14.10;99.90
423;DHT22;198;48.752;9.180;2023-03-20T09:16:24;14.40;99.90
423;DHT22;198;48.752;9.180;2023-03-20T09:18:49;14.40;99.90
423;DHT22;198;48.752;9.180;2023-03-20T09:21:15;14.40;99.90
423;DHT22;198;48.752;9.180;2023-03-20T09:23:40;14.80;99.90
423;DHT22;198;48.752;9.180;2023-03-20T09:26:06;15.00;99.90
423;DHT22;198;48.752;9.180;2023-03-20T09:28:32;15.10;99.20
423;DHT22;198;48.752;9.180;2023-03-20T09:30:58;15.20;98.30
423;DHT22;198;48.752;9.180;2023-03-20T09:33:24;15.20;96.50
423;DHT22;198;48.752;9.180;2023-03-20T09:35:50;14.70;97.10
423;DHT22;198;48.752;9.180;2023-03-20T09:38:15;14.50;96.70
423;DHT22;198;48.752;9.180;2023-03-20T09:43:46;14.30;97.60
423;DHT22;198;48.752;9.180;2023-03-20T09:46:28;14.30;98.00
423;DHT22;198;48.752;9.180;2023-03-20T09:51:50;14.30;97.00
423;DHT22;198;48.752;9.180;2023-03-20T09:54:24;14.10;97.40
423;DHT22;198;48.752;9.180;2023-03-20T09:56:51;14.10;98.20
423;DHT22;198;48.752;9.180;2023-03-20T09:59:19;14.20;98.10
423;DHT22;198;48.752;9.180;2023-03-20T10:01:52;14.10;97.30
423;DHT22;198;48.752;9.180;2023-03-20T10:04:18;14.20;97.00
423;DHT22;198;48.752;9.180;2023-03-20T10:06:44;14.60;96.60
423;DHT22;198;48.752;9.180;2023-03-20T10:09:22;14.80;95.90
423;DHT22;198;48.752;9.180;2023-03-20T10:12:22;14.80;95.20
423;DHT22;198;48.752;9.180;2023-03-20T10:22:56;15.00;94.30
423;DHT22;198;48.752;9.180;2023-03-20T10:25:31;15.20;94.40
423;DHT22;198;48.752;9.180;2023-03-20T10:28:01;15.50;92.90
423;DHT22;198;48.752;9.180;2023-03-20T10:33:44;15.60;90.50
423;DHT22;198;48.752;9.180;2023-03-20T10:36:30;15.30;89.90
423;DHT22;198;48.752;9.180;2023-03-20T10:39:08;14.90;90.90
423;DHT22;198;48.752;9.180;2023-03-20T10:41:40;14.40;91.40
423;DHT22;198;48.752;9.180;2023-03-20T10:44:29;14.00;92.40
423;DHT22;198;48.752;9.180;2023-03-20T10:46:58;13.90;93.40
423;DHT22;198;48.752;9.180;2023-03-20T10:49:28;13.70;94.10
423;DHT22;198;48.752;9.180;2023-03-20T10:51:58;13.60;93.80
423;DHT22;198;48.752;9.180;2023-03-20T10:54:29;13.50;94.20
423;DHT22;198;48.752;9.180;2023-03-20T10:56:58;13.40;94.80
423;DHT22;198;48.752;9.180;2023-03-20T11:01:58;13.20;96.30
423;DHT22;198;48.752;9.180;2023-03-20T11:04:23;13.30;96.80
423;DHT22;198;48.752;9.180;2023-03-20T11:09:32;13.50;97.90
423;DHT22;198;48.752;9.180;2023-03-20T11:12:00;13.60;99.30
423;DHT22;198;48.752;9.180;2023-03-20T11:14:36;13.80;99.40
423;DHT22;198;48.752;9.180;2023-03-20T11:17:04;14.30;99.90
423;DHT22;198;48.752;9.180;2023-03-20T11:19:35;14.80;99.10
423;DHT22;198;48.752;9.180;2023-03-20T11:22:07;15.40;97.90
423;DHT22;198;48.752;9.180;2023-03-20T11:27:10;16.40;93.90
423;DHT22;198;48.752;9.180;2023-03-20T11:29:37;16.70;93.70
423;DHT22;198;48.752;9.180;2023-03-20T11:34:54;16.30;92.70
423;DHT22;198;48.752;9.180;2023-03-20T11:37:33;16.10;92.70
423;DHT22;198;48.752;9.180;2023-03-20T11:40:13;15.90;93.90
423;DHT22;198;48.752;9.180;2023-03-20T11:43:09;15.70;94.00
423;DHT22;198;48.752;9.180;2023-03-20T11:45:38;15.50;94.80
423;DHT22;198;48.752;9.180;2023-03-20T11:48:05;15.30;95.30
423;DHT22;198;48.752;9.180;2023-03-20T11:50:43;15.20;96.50
423;DHT22;198;48.752;9.180;2023-03-20T11:53:30;15.20;96.30
423;DHT22;198;48.752;9.180;2023-03-20T11:56:03;15.30;97.10
423;DHT22;198;48.752;9.180;2023-03-20T11:58:29;15.50;96.50
423;DHT22;198;48.752;9.180;2023-03-20T12:00:57;15.70;96.40
423;DHT22;198;48.752;9.180;2023-03-20T12:06:12;17.00;93.00
423;DHT22;198;48.752;9.180;2023-03-20T12:08:40;18.10;92.40
423;DHT22;198;48.752;9.180;2023-03-20T12:11:30;19.00;86.90
423;DHT22;198;48.752;9.180;2023-03-20T12:14:02;19.60;84.10
423;DHT22;198;48.752;9.180;2023-03-20T12:16:31;19.80;80.60
423;DHT22;198;48.752;9.180;2023-03-20T12:19:03;20.00;77.90
423;DHT22;198;48.752;9.180;2023-03-20T12:21:56;20.00;75.60
423;DHT22;198;48.752;9.180;2023-03-20T12:24:32;20.00;74.10
423;DHT22;198;48.752;9.180;2023-03-20T12:29:46;24.60;64.30
423;DHT22;198;48.752;9.180;2023-03-20T12:32:40;26.70;53.90
423;DHT22;198;48.752;9.180;2023-03-20T12:35:17;26.70;50.40
423;DHT22;198;48.752;9.180;2023-03-20T12:37:44;26.40;47.80
423;DHT22;198;48.752;9.180;2023-03-20T12:40:17;25.40;47.30
423;DHT22;198;48.752;9.180;2023-03-20T12:43:10;24.10;48.90
423;DHT22;198;48.752;9.180;2023-03-20T12:45:40;23.10;50.50
423;DHT22;198;48.752;9.180;2023-03-20T12:48:33;23.00;50.70
423;DHT22;198;48.752;9.180;2023-03-20T12:51:14;22.90;50.60
423;DHT22;198;48.752;9.180;2023-03-20T12:53:51;22.80;52.00
423;DHT22;198;48.752;9.180;2023-03-20T13:05:34;20.60;52.50
423;DHT22;198;48.752;9.180;2023-03-20T13:08:23;19.70;54.70
423;DHT22;198;48.752;9.180;2023-03-20T13:11:04;18.90;56.50
423;DHT22;198;48.752;9.180;2023-03-20T13:16:16;18.30;58.20
423;DHT22;198;48.752;9.180;2023-03-20T13:18:55;18.40;58.90
423;DHT22;198;48.752;9.180;2023-03-20T13:21:33;18.40;60.20
423;DHT22;198;48.752;9.180;2023-03-20T13:24:21;18.20;59.50
423;DHT22;198;48.752;9.180;2023-03-20T13:27:06;18.10;59.50
423;DHT22;198;48.752;9.180;2023-03-20T13:29:47;17.70;60.50
423;DHT22;198;48.752;9.180;2023-03-20T13:32:39;17.40;62.10
423;DHT22;198;48.752;9.180;2023-03-20T13:35:20;17.20;62.00
423;DHT22;198;48.752;9.180;2023-03-20T13:37:55;16.90;63.60
423;DHT22;198;48.752;9.180;2023-03-20T13:40:31;16.50;63.70
423;DHT22;198;48.752;9.180;2023-03-20T13:48:01;16.00;70.10
423;DHT22;198;48.752;9.180;2023-03-20T13:50:36;16.00;71.70
423;DHT22;198;48.752;9.180;2023-03-20T13:53:27;16.00;72.00
423;DHT22;198;48.752;9.180;2023-03-20T13:58:48;15.70;71.60
423;DHT22;198;48.752;9.180;2023-03-20T14:01:53;15.50;71.40
423;DHT22;198;48.752;9.180;2023-03-20T14:04:22;15.60;74.60
423;DHT22;198;48.752;9.180;2023-03-20T14:06:52;15.90;74.70
423;DHT22;198;48.752;9.180;2023-03-20T14:12:07;16.80;74.50
423;DHT22;198;48.752;9.180;2023-03-20T14:14:45;17.00;70.40
423;DHT22;198;48.752;9.180;2023-03-20T14:19:39;17.50;68.60
423;DHT22;198;48.752;9.180;2023-03-20T14:22:05;17.40;65.80
423;DHT22;198;48.752;9.180;2023-03-20T14:24:35;17.40;65.40
423;DHT22;198;48.752;9.180;2023-03-20T14:27:02;17.50;64.60
423;DHT22;198;48.752;9.180;2023-03-20T14:34:46;17.20;64.90
423;DHT22;198;48.752;9.180;2023-03-20T14:40:16;17.00;65.80
423;DHT22;198;48.752;9.180;2023-03-20T14:42:50;16.90;65.30
423;DHT22;198;48.752;9.180;2023-03-20T14:51:08;16.80;65.20
423;DHT22;198;48.752;9.180;2023-03-20T14:53:40;16.70;66.90
423;DHT22;198;48.752;9.180;2023-03-20T14:56:10;16.60;67.30
423;DHT22;198;48.752;9.180;2023-03-20T15:03:41;16.00;67.80
423;DHT22;198;48.752;9.180;2023-03-20T15:06:08;15.90;68.40
423;DHT22;198;48.752;9.180;2023-03-20T15:08:44;15.80;69.80
423;DHT22;198;48.752;9.180;2023-03-20T15:11:13;15.70;72.50
423;DHT22;198;48.752;9.180;2023-03-20T15:13:40;15.70;74.60
423;DHT22;198;48.752;9.180;2023-03-20T15:16:15;15.60;76.70
423;DHT22;198;48.752;9.180;2023-03-20T15:18:49;15.70;76.50
423;DHT22;198;48.752;9.180;2023-03-20T15:21:20;15.70;75.50
423;DHT22;198;48.752;9.180;2023-03-20T15:23:47;15.60;75.60
423;DHT22;198;48.752;9.180;2023-03-20T15:26:14;15.60;75.60
423;DHT22;198;48.752;9.180;2023-03-20T15:28:40;15.50;73.80
423;DHT22;198;48.752;9.180;2023-03-20T15:31:25;15.50;73.10
423;DHT22;198;48.752;9.180;2023-03-20T15:33:51;15.40;74.20
423;DHT22;198;48.752;9.180;2023-03-20T15:36:19;15.40;75.20
423;DHT22;198;48.752;9.180;2023-03-20T15:38:47;15.40;75.30
423;DHT22;198;48.752;9.180;2023-03-20T15:41:33;15.30;73.80
423;DHT22;198;48.752;9.180;2023-03-20T15:44:23;15.20;71.90
423;DHT22;198;48.752;9.180;2023-03-20T15:49:29;15.00;71.10
423;DHT22;198;48.752;9.180;2023-03-20T15:51:57;15.10;72.70
423;DHT22;198;48.752;9.180;2023-03-20T15:54:24;15.00;73.00
423;DHT22;198;48.752;9.180;2023-03-20T15:56:53;15.00;70.40
423;DHT22;198;48.752;9.180;2023-03-20T15:59:23;14.80;70.40
423;DHT22;198;48.752;9.180;2023-03-20T16:01:51;14.70;68.90
423;DHT22;198;48.752;9.180;2023-03-20T16:04:18;14.60;68.90
423;DHT22;198;48.752;9.180;2023-03-20T16:06:51;14.60;69.10
423;DHT22;198;48.752;9.180;2023-03-20T16:09:18;14.60;69.80
423;DHT22;198;48.752;9.180;2023-03-20T16:11:46;14.50;67.60
423;DHT22;198;48.752;9.180;2023-03-20T16:14:17;14.30;67.40
423;DHT22;198;48.752;9.180;2023-03-20T16:16:47;14.00;68.20
423;DHT22;198;48.752;9.180;2023-03-20T16:19:13;14.00;68.40
423;DHT22;198;48.752;9.180;2023-03-20T16:21:43;13.90;68.90
423;DHT22;198;48.752;9.180;2023-03-20T16:24:20;13.80;68.80
423;DHT22;198;48.752;9.180;2023-03-20T16:26:49;13.80;69.50
423;DHT22;198;48.752;9.180;2023-03-20T16:29:16;13.80;70.00
423;DHT22;198;48.752;9.180;2023-03-20T16:32:18;13.70;70.40
423;DHT22;198;48.752;9.180;2023-03-20T16:34:49;13.60;69.90
423;DHT22;198;48.752;9.180;2023-03-20T16:37:37;13.60;70.30
423;DHT22;198;48.752;9.180;2023-03-20T16:42:43;13.60;70.60
423;DHT22;198;48.752;9.180;2023-03-20T16:45:28;13.70;70.60
423;DHT22;198;48.752;9.180;2023-03-20T16:48:23;13.60;68.50
423;DHT22;198;48.752;9.180;2023-03-20T16:50:56;13.60;69.80
423;DHT22;198;48.752;9.180;2023-03-20T16:53:22;13.50;69.00
423;DHT22;198;48.752;9.180;2023-03-20T16:55:50;13.40;69.60
423;DHT22;198;48.752;9.180;2023-03-20T16:58:22;13.30;69.10
423;DHT22;198;48.752;9.180;2023-03-20T17:01:00;13.20;70.20
423;DHT22;198;48.752;9.180;2023-03-20T17:03:33;13.10;70.90
423;DHT22;198;48.752;9.180;2023-03-20T17:06:07;12.90;70.50
423;DHT22;198;48.752;9.180;2023-03-20T17:08:41;12.80;71.70
423;DHT22;198;48.752;9.180;2023-03-20T17:11:13;12.70;72.10
423;DHT22;198;48.752;9.180;2023-03-20T17:13:39;12.50;72.20
423;DHT22;198;48.752;9.180;2023-03-20T17:16:10;12.50;72.50
423;DHT22;198;48.752;9.180;2023-03-20T17:18:37;12.40;72.50
423;DHT22;198;48.752;9.180;2023-03-20T17:21:03;12.30;72.40
423;DHT22;198;48.752;9.180;2023-03-20T17:23:29;12.30;74.10
423;DHT22;198;48.752;9.180;2023-03-20T17:25:55;12.20;74.00
423;DHT22;198;48.752;9.180;2023-03-20T17:28:23;12.20;74.90
423;DHT22;198;48.752;9.180;2023-03-20T17:30:50;12.20;74.30
423;DHT22;198;48.752;9.180;2023-03-20T17:33:17;12.10;75.20
423;DHT22;198;48.752;9.180;2023-03-20T17:35:45;12.00;75.10
423;DHT22;198;48.752;9.180;2023-03-20T17:38:17;12.00;75.80
423;DHT22;198;48.752;9.180;2023-03-20T17:40:43;12.00;76.00
423;DHT22;198;48.752;9.180;2023-03-20T17:43:10;12.00;76.20
423;DHT22;198;48.752;9.180;2023-03-20T17:45:36;12.00;77.10
423;DHT22;198;48.752;9.180;2023-03-20T17:48:01;12.00;77.90
423;DHT22;198;48.752;9.180;2023-03-20T17:50:27;12.10;77.50
423;DHT22;198;48.752;9.180;2023-03-20T17:52:53;12.00;78.10
423;DHT22;198;48.752;9.180;2023-03-20T17:55:19;12.10;79.00
423;DHT22;198;48.752;9.180;2023-03-20T17:57:45;12.10;79.00
423;DHT22;198;48.752;9.180;2023-03-20T18:00:20;12.00;78.60
423;DHT22;198;48.752;9.180;2023-03-20T18:02:47;12.00;79.70
423;DHT22;198;48.752;9.180;2023-03-20T18:05:12;12.00;80.20
423;DHT22;198;48.752;9.180;2023-03-20T18:07:38;12.00;80.10
423;DHT22;198;48.752;9.180;2023-03-20T18:10:05;12.00;80.70
423;DHT22;198;48.752;9.180;2023-03-20T18:12:30;12.10;82.40
423;DHT22;198;48.752;9.180;2023-03-20T18:14:59;12.00;80.70
423;DHT22;198;48.752;9.180;2023-03-20T18:17:24;12.00;80.60
423;DHT22;198;48.752;9.180;2023-03-20T18:19:52;12.00;81.30
423;DHT22;198;48.752;9.180;2023-03-20T18:22:17;12.00;81.20
423;DHT22;198;48.752;9.180;2023-03-20T18:24:43;11.90;81.20
423;DHT22;198;48.752;9.180;2023-03-20T18:27:09;11.90;81.60
423;DHT22;198;48.752;9.180;2023-03-20T18:29:35;11.90;82.20
423;DHT22;198;48.752;9.180;2023-03-20T18:32:00;11.90;82.00
423;DHT22;198;48.752;9.180;2023-03-20T18:34:26;11.90;82.10
423;DHT22;198;48.752;9.180;2023-03-20T18:36:51;11.90;82.30
423;DHT22;198;48.752;9.180;2023-03-20T18:39:22;11.90;82.80
423;DHT22;198;48.752;9.180;2023-03-20T18:41:47;11.90;82.50
423;DHT22;198;48.752;9.180;2023-03-20T18:44:13;11.90;82.80
423;DHT22;198;48.752;9.180;2023-03-20T18:46:39;11.90;83.30
423;DHT22;198;48.752;9.180;2023-03-20T18:49:05;11.90;83.80
423;DHT22;198;48.752;9.180;2023-03-20T18:51:31;11.80;84.20
423;DHT22;198;48.752;9.180;2023-03-20T18:53:57;11.80;84.60
423;DHT22;198;48.752;9.180;2023-03-20T18:56:26;11.80;85.10
423;DHT22;198;48.752;9.180;2023-03-20T18:58:52;11.80;85.50
423;DHT22;198;48.752;9.180;2023-03-20T19:01:19;11.90;86.70
423;DHT22;198;48.752;9.180;2023-03-20T19:03:45;11.80;86.40